Mosquero, New Mexico
Current Conditions -  °F | °C
As of 2:53 AM on Sunday 25 Jan 2015 (Local Time) from KTCC Reporting Station
Clear Clear  
Wind Chill: 22°   Ceiling: Unl
Heat Index: 30°   Visibility: 10mi
Dew Point: 24°   Wind: 9mph
Humidity: 79%   Direction: 300°WNW
Pressure: 30.15"   Gusts: NA
Location:  35.78°N, 103.96°W
Report Text: KTCC 250953Z AUTO 30008KT 10SM CLR M01/M04 A3015 RMK AO2 SLP213 T10111044
Loading
Personal Weather Stations






























Interactive Weather Map New forecast layout! Learn more

10-Day Weather Forecast

Advertisements
Track Severe Weather on mobile